Time,TemperatureF,DewpointF,PressureIn,WindDirection,WindDirectionDegrees,WindSpeedMPH,WindSpeedGustMPH,Humidity,HourlyPrecipIn,Conditions,Clouds,dailyrainin,SoftwareType,DateUTC
2013-04-01 00:14:00,54.1,53.0,29.75,ENE,77,0.0,1.0,97,0.00,,,0.19,weatherlink.com 1.10,2013-04-01 04:14:00,
2013-04-01 00:29:00,54.4,54.0,29.74,ENE,77,0.0,3.0,97,0.00,,,0.19,weatherlink.com 1.10,2013-04-01 04:29:00,
2013-04-01 00:44:00,54.1,53.0,29.76,ENE,77,0.0,1.0,97,0.00,,,0.19,weatherlink.com 1.10,2013-04-01 04:44:00,
2013-04-01 00:59:00,54.2,53.0,29.75,ENE,77,0.0,1.0,97,0.00,,,0.19,weatherlink.com 1.10,2013-04-01 04:59:00,
2013-04-01 01:14:00,54.4,54.0,29.75,NE,42,2.0,4.0,97,0.00,,,0.00,weatherlink.com 1.10,2013-04-01 05:14:00,
2013-04-01 01:29:00,54.7,54.0,29.76,NE,41,2.0,3.0,97,0.00,,,0.00,weatherlink.com 1.10,2013-04-01 05:29:00,
2013-04-01 01:44:00,54.7,54.0,29.75,NE,40,2.0,3.0,96,0.00,,,0.00,weatherlink.com 1.10,2013-04-01 05:44:00,
2013-04-01 01:59:00,54.8,54.0,29.75,NE,55,2.0,3.0,96,0.00,,,0.00,weatherlink.com 1.10,2013-04-01 05:59:00,
2013-04-01 02:14:00,55.5,53.0,29.75,ENE,78,2.0,3.0,92,0.00,,,0.00,weatherlink.com 1.10,2013-04-01 06:14:00,
2013-04-01 02:30:00,55.5,52.0,29.74,ENE,72,2.0,3.0,89,0.00,,,0.00,weatherlink.com 1.10,2013-04-01 06:30:00,
2013-04-01 02:45:00,55.4,52.0,29.75,NE,40,3.0,4.0,87,0.00,,,0.00,weatherlink.com 1.10,2013-04-01 06:45:00,
2013-04-01 03:00:00,55.2,51.0,29.75,NE,55,1.0,3.0,87,0.00,,,0.00,weatherlink.com 1.10,2013-04-01 07:00:00,
2013-04-01 03:15:00,55.2,50.0,29.75,NE,49,0.0,3.0,83,0.00,,,0.00,weatherlink.com 1.10,2013-04-01 07:15:00,
2013-04-01 03:30:00,54.2,50.0,29.75,NE,49,0.0,1.0,86,0.00,,,0.00,weatherlink.com 1.10,2013-04-01 07:30:00,
2013-04-01 03:45:00,53.5,50.0,29.75,NE,49,1.0,2.0,88,0.00,,,0.00,weatherlink.com 1.10,2013-04-01 07:45:00,
2013-04-01 04:00:00,52.7,51.0,29.75,NE,49,0.0,1.0,92,0.00,,,0.00,weatherlink.com 1.10,2013-04-01 08:00:00,
2013-04-01 04:15:00,52.7,51.0,29.75,NE,52,2.0,2.0,92,0.00,,,0.00,weatherlink.com 1.10,2013-04-01 08:15:00,
2013-04-01 04:30:00,52.3,50.0,29.75,ESE,107,0.0,2.0,93,0.00,,,0.00,weatherlink.com 1.10,2013-04-01 08:30:00,
2013-04-01 04:45:00,52.0,50.0,29.75,NNW,334,0.0,3.0,92,0.00,,,0.00,weatherlink.com 1.10,2013-04-01 08:45:00,
2013-04-01 05:00:00,50.6,48.0,29.76,ENE,63,0.0,3.0,92,0.00,,,0.00,weatherlink.com 1.10,2013-04-01 09:00:00,
2013-04-01 05:15:00,50.2,48.0,29.76,ENE,66,0.0,3.0,93,0.00,,,0.00,weatherlink.com 1.10,2013-04-01 09:15:00,
2013-04-01 05:45:00,47.9,46.0,29.76,ENE,62,3.0,3.0,93,0.00,,,0.00,weatherlink.com 1.10,2013-04-01 09:45:00,
2013-04-01 06:00:00,47.5,46.0,29.77,East,91,2.0,3.0,95,0.00,,,0.00,weatherlink.com 1.10,2013-04-01 10:00:00,
2013-04-01 06:15:00,46.5,45.0,29.77,East,91,0.0,2.0,95,0.00,,,0.00,weatherlink.com 1.10,2013-04-01 10:15:00,
2013-04-01 06:30:00,45.4,44.0,29.78,East,91,0.0,2.0,94,0.00,,,0.00,weatherlink.com 1.10,2013-04-01 10:30:00,
2013-04-01 06:45:00,44.9,44.0,29.78,East,91,2.0,3.0,95,0.00,,,0.00,weatherlink.com 1.10,2013-04-01 10:45:00,
2013-04-01 07:00:00,44.3,43.0,29.79,North,5,2.0,3.0,95,0.00,,,0.00,weatherlink.com 1.10,2013-04-01 11:00:00,
2013-04-01 07:15:00,43.5,42.0,29.80,ENE,66,0.0,0.0,94,0.00,,,0.00,weatherlink.com 1.10,2013-04-01 11:15:00,
2013-04-01 07:30:00,43.2,42.0,29.80,SSE,151,0.0,3.0,95,0.00,,,0.00,weatherlink.com 1.10,2013-04-01 11:30:00,
2013-04-01 07:45:00,43.1,42.0,29.80,NE,45,0.0,3.0,96,0.00,,,0.00,weatherlink.com 1.10,2013-04-01 11:45:00,
2013-04-01 08:00:00,43.1,42.0,29.81,North,5,0.0,2.0,96,0.00,,,0.00,weatherlink.com 1.10,2013-04-01 12:00:00,
2013-04-01 08:15:00,45.0,44.0,29.82,NNE,14,2.0,3.0,97,0.00,,,0.00,weatherlink.com 1.10,2013-04-01 12:15:00,
2013-04-01 08:30:00,47.1,46.0,29.82,NW,307,0.0,2.0,96,0.00,,,0.00,weatherlink.com 1.10,2013-04-01 12:30:00,
2013-04-01 08:45:00,49.8,47.0,29.82,SSW,196,0.0,3.0,91,0.00,,,0.00,weatherlink.com 1.10,2013-04-01 12:45:00,
2013-04-01 09:01:00,53.0,46.0,29.82,NNW,344,2.0,3.0,77,0.00,,,0.00,weatherlink.com 1.10,2013-04-01 13:01:00,
2013-04-01 09:16:00,56.6,43.0,29.82,SSW,199,3.0,5.0,61,0.00,,,0.00,weatherlink.com 1.10,2013-04-01 13:16:00,
2013-04-01 09:31:00,57.8,45.0,29.82,SW,236,3.0,4.0,62,0.00,,,0.00,weatherlink.com 1.10,2013-04-01 13:31:00,
2013-04-01 09:46:00,59.0,40.0,29.83,NNW,337,5.0,7.0,49,0.00,,,0.00,weatherlink.com 1.10,2013-04-01 13:46:00,
2013-04-01 10:01:00,60.1,39.0,29.82,WNW,284,3.0,8.0,46,0.00,,,0.00,weatherlink.com 1.10,2013-04-01 14:01:00,
2013-04-01 10:16:00,60.7,42.0,29.82,West,271,7.0,7.0,51,0.00,,,0.00,weatherlink.com 1.10,2013-04-01 14:16:00,
2013-04-01 10:46:00,61.6,39.0,29.82,West,265,9.0,10.0,44,0.00,,,0.00,weatherlink.com 1.10,2013-04-01 14:46:00,
2013-04-01 11:01:00,62.3,39.0,29.82,NNE,17,6.0,9.0,43,0.00,,,0.00,weatherlink.com 1.10,2013-04-01 15:01:00,
2013-04-01 11:16:00,62.6,38.0,29.83,SSW,208,6.0,10.0,40,0.00,,,0.00,weatherlink.com 1.10,2013-04-01 15:16:00,
2013-04-01 11:31:00,62.9,39.0,29.83,WNW,290,3.0,8.0,41,0.00,,,0.00,weatherlink.com 1.10,2013-04-01 15:31:00,
2013-04-01 12:02:00,64.0,39.0,29.82,South,189,1.0,7.0,40,0.00,,,0.00,weatherlink.com 1.10,2013-04-01 16:02:00,
2013-04-01 12:16:00,64.9,38.0,29.82,WSW,242,4.0,11.0,37,0.00,,,0.00,weatherlink.com 1.10,2013-04-01 16:16:00,
2013-04-01 12:31:00,65.4,38.0,29.82,SSE,165,6.0,12.0,37,0.00,,,0.00,weatherlink.com 1.10,2013-04-01 16:31:00,
2013-04-01 12:46:00,66.0,40.0,29.81,NW,311,8.0,10.0,39,0.00,,,0.00,weatherlink.com 1.10,2013-04-01 16:46:00,
2013-04-01 13:01:00,66.5,37.0,29.81,WSW,251,4.0,15.0,34,0.00,,,0.00,weatherlink.com 1.10,2013-04-01 17:01:00,
2013-04-01 13:16:00,66.7,39.0,29.81,WNW,292,6.0,20.0,36,0.00,,,0.00,weatherlink.com 1.10,2013-04-01 17:16:00,
2013-04-01 13:46:00,66.7,37.0,29.80,WSW,251,9.0,20.0,34,0.00,,,0.00,weatherlink.com 1.10,2013-04-01 17:46:00,
2013-04-01 14:31:00,67.6,38.0,29.80,West,271,23.0,23.0,34,0.01,,,0.01,weatherlink.com 1.10,2013-04-01 18:31:00,
2013-04-01 14:46:00,67.5,39.0,29.80,NW,309,12.0,20.0,36,0.01,,,0.01,weatherlink.com 1.10,2013-04-01 18:46:00,
2013-04-01 15:31:00,67.7,38.0,29.79,West,267,10.0,17.0,34,0.00,,,0.01,weatherlink.com 1.10,2013-04-01 19:31:00,
2013-04-01 15:46:00,67.9,41.0,29.79,NNW,327,9.0,16.0,37,0.00,,,0.01,weatherlink.com 1.10,2013-04-01 19:46:00,
2013-04-01 16:01:00,68.6,39.0,29.79,NE,35,12.0,18.0,34,0.00,,,0.01,weatherlink.com 1.10,2013-04-01 20:01:00,
2013-04-01 16:16:00,68.5,40.0,29.79,WSW,257,10.0,18.0,35,0.00,,,0.01,weatherlink.com 1.10,2013-04-01 20:16:00,
2013-04-01 16:31:00,67.5,39.0,29.78,WNW,286,12.0,21.0,36,0.00,,,0.01,weatherlink.com 1.10,2013-04-01 20:31:00,
2013-04-01 16:46:00,67.6,40.0,29.78,WNW,299,6.0,22.0,36,0.00,,,0.01,weatherlink.com 1.10,2013-04-01 20:46:00,
2013-04-01 17:01:00,66.3,39.0,29.78,NNW,341,9.0,28.0,37,0.00,,,0.01,weatherlink.com 1.10,2013-04-01 21:01:00,
2013-04-01 17:16:00,65.3,40.0,29.79,NW,304,13.0,21.0,39,0.00,,,0.01,weatherlink.com 1.10,2013-04-01 21:16:00,
2013-04-01 17:31:00,65.0,40.0,29.79,WNW,300,7.0,18.0,40,0.00,,,0.01,weatherlink.com 1.10,2013-04-01 21:31:00,
2013-04-01 17:46:00,65.0,40.0,29.79,NW,324,8.0,18.0,40,0.00,,,0.01,weatherlink.com 1.10,2013-04-01 21:46:00,
2013-04-01 18:01:00,63.6,41.0,29.80,WNW,296,5.0,19.0,43,0.00,,,0.01,weatherlink.com 1.10,2013-04-01 22:01:00,
2013-04-01 18:16:00,63.0,41.0,29.80,WNW,300,11.0,14.0,45,0.00,,,0.01,weatherlink.com 1.10,2013-04-01 22:16:00,
2013-04-01 18:31:00,63.9,41.0,29.80,WNW,300,11.0,13.0,44,0.00,,,0.01,weatherlink.com 1.10,2013-04-01 22:31:00,
2013-04-01 18:46:00,63.3,41.0,29.81,NW,313,9.0,16.0,45,0.00,,,0.01,weatherlink.com 1.10,2013-04-01 22:46:00,
2013-04-01 19:01:00,63.1,41.0,29.81,West,267,7.0,15.0,44,0.00,,,0.01,weatherlink.com 1.10,2013-04-01 23:01:00,
2013-04-01 19:16:00,62.4,40.0,29.81,West,274,6.0,16.0,44,0.00,,,0.01,weatherlink.com 1.10,2013-04-01 23:16:00,
2013-04-01 19:31:00,61.7,40.0,29.82,West,279,5.0,14.0,45,0.00,,,0.01,weatherlink.com 1.10,2013-04-01 23:31:00,
2013-04-01 19:47:00,61.2,39.0,29.82,West,273,6.0,16.0,44,0.00,,,0.01,weatherlink.com 1.10,2013-04-01 23:47:00,
2013-04-01 20:02:00,60.5,39.0,29.82,NW,313,4.0,11.0,46,0.00,,,0.01,weatherlink.com 1.10,2013-04-02 00:02:00,
2013-04-01 20:17:00,59.8,40.0,29.82,WNW,284,5.0,15.0,48,0.00,,,0.01,weatherlink.com 1.10,2013-04-02 00:17:00,
2013-04-01 20:32:00,59.5,40.0,29.82,WNW,285,4.0,6.0,48,0.00,,,0.01,weatherlink.com 1.10,2013-04-02 00:32:00,
2013-04-01 20:47:00,59.1,39.0,29.83,West,262,4.0,11.0,48,0.00,,,0.01,weatherlink.com 1.10,2013-04-02 00:47:00,
2013-04-01 21:02:00,58.9,38.0,29.83,West,272,4.0,11.0,47,0.00,,,0.01,weatherlink.com 1.10,2013-04-02 01:02:00,
2013-04-01 21:17:00,59.2,38.0,29.83,WNW,294,5.0,15.0,45,0.00,,,0.01,weatherlink.com 1.10,2013-04-02 01:17:00,
2013-04-01 21:32:00,59.5,37.0,29.83,WNW,284,7.0,21.0,43,0.00,,,0.01,weatherlink.com 1.10,2013-04-02 01:32:00,
2013-04-01 21:47:00,59.3,37.0,29.84,NW,326,6.0,14.0,43,0.00,,,0.01,weatherlink.com 1.10,2013-04-02 01:47:00,
2013-04-01 22:02:00,58.6,37.0,29.85,WNW,293,2.0,10.0,45,0.00,,,0.01,weatherlink.com 1.10,2013-04-02 02:02:00,
2013-04-01 22:17:00,58.1,37.0,29.86,West,277,0.0,8.0,46,0.00,,,0.01,weatherlink.com 1.10,2013-04-02 02:17:00,
2013-04-01 22:32:00,57.2,37.0,29.86,WNW,292,1.0,4.0,47,0.00,,,0.01,weatherlink.com 1.10,2013-04-02 02:32:00,
2013-04-01 22:47:00,56.2,37.0,29.86,WSW,239,2.0,4.0,49,0.00,,,0.01,weatherlink.com 1.10,2013-04-02 02:47:00,
2013-04-01 23:02:00,55.9,37.0,29.87,WNW,293,2.0,7.0,49,0.00,,,0.01,weatherlink.com 1.10,2013-04-02 03:02:00,
2013-04-01 23:17:00,56.0,36.0,29.87,WSW,248,4.0,9.0,47,0.00,,,0.01,weatherlink.com 1.10,2013-04-02 03:17:00,
2013-04-01 23:32:00,56.0,35.0,29.87,West,260,3.0,8.0,45,0.00,,,0.01,weatherlink.com 1.10,2013-04-02 03:32:00,
2013-04-01 23:47:00,55.7,34.0,29.87,WNW,288,6.0,12.0,44,0.00,,,0.01,weatherlink.com 1.10,2013-04-02 03:47:00,